createdAt,value
2022-09-27T00:00:38.816Z,10.40
2022-09-27T00:03:05.804Z,10.40
2022-09-27T00:05:32.824Z,10.40
2022-09-27T00:07:59.706Z,10.40
2022-09-27T00:10:26.780Z,10.40
2022-09-27T00:12:54.168Z,10.40
2022-09-27T00:15:21.141Z,10.30
2022-09-27T00:17:51.982Z,10.30
2022-09-27T00:20:20.594Z,10.30
2022-09-27T00:22:51.398Z,10.30
2022-09-27T00:25:19.146Z,10.30
2022-09-27T00:27:46.344Z,10.20
2022-09-27T00:30:13.903Z,10.20
2022-09-27T00:32:41.092Z,10.20
2022-09-27T00:35:08.476Z,10.20
2022-09-27T00:37:35.718Z,10.20
2022-09-27T00:40:02.710Z,10.20
2022-09-27T00:42:29.982Z,10.10
2022-09-27T00:45:00.024Z,10.20
2022-09-27T00:47:30.198Z,10.20
2022-09-27T00:50:01.505Z,10.10
2022-09-27T00:52:31.746Z,10.20
2022-09-27T00:55:04.765Z,10.10
2022-09-27T00:57:31.803Z,10.10
2022-09-27T01:00:01.356Z,10.10
2022-09-27T01:02:28.808Z,10.10
2022-09-27T01:04:55.981Z,10.20
2022-09-27T01:07:23.052Z,10.20
2022-09-27T01:09:50.278Z,10.10
2022-09-27T01:12:19.563Z,10.10
2022-09-27T01:15:01.833Z,10.10
2022-09-27T01:17:35.050Z,10.10
2022-09-27T01:20:02.152Z,10.10
2022-09-27T01:22:33.294Z,10.10
2022-09-27T01:25:19.030Z,10.20
2022-09-27T01:27:56.021Z,10.20
2022-09-27T01:30:35.928Z,10.20
2022-09-27T01:33:27.177Z,10.10
2022-09-27T01:36:03.621Z,10.10
2022-09-27T01:38:43.224Z,10.00
2022-09-27T01:41:21.467Z,10.00
2022-09-27T01:43:58.037Z,10.00
2022-09-27T01:46:33.705Z,10.00
2022-09-27T01:49:17.898Z,9.90
2022-09-27T01:51:52.433Z,9.90
2022-09-27T01:54:35.573Z,9.90
2022-09-27T01:57:27.530Z,9.90
2022-09-27T02:00:04.526Z,9.80
2022-09-27T02:02:49.303Z,9.80
2022-09-27T02:05:44.991Z,9.70
2022-09-27T02:08:44.193Z,9.70
2022-09-27T02:11:20.877Z,9.70
2022-09-27T02:14:00.404Z,9.60
2022-09-27T02:16:52.752Z,9.60
2022-09-27T02:19:50.177Z,9.60
2022-09-27T02:22:41.183Z,9.60
2022-09-27T02:25:14.430Z,9.50
2022-09-27T02:27:55.894Z,9.50
2022-09-27T02:30:26.610Z,9.50
2022-09-27T02:33:01.959Z,9.50
2022-09-27T02:35:31.781Z,9.40
2022-09-27T02:37:58.935Z,9.40
2022-09-27T02:40:29.721Z,9.40
2022-09-27T02:42:59.527Z,9.40
2022-09-27T02:45:30.697Z,9.40
2022-09-27T02:48:18.962Z,9.40
2022-09-27T02:50:45.940Z,9.30
2022-09-27T02:53:42.122Z,9.30
2022-09-27T02:56:35.090Z,9.30
2022-09-27T02:59:19.753Z,9.30
2022-09-27T03:02:13.983Z,9.30
2022-09-27T03:05:08.535Z,9.30
2022-09-27T03:07:35.775Z,9.30
2022-09-27T03:10:03.442Z,9.30
2022-09-27T03:12:30.435Z,9.20
2022-09-27T03:14:59.321Z,9.20
2022-09-27T03:17:44.760Z,9.20
2022-09-27T03:20:41.836Z,9.20
2022-09-27T03:23:14.410Z,9.20
2022-09-27T03:25:41.970Z,9.20
2022-09-27T03:28:11.395Z,9.30
2022-09-27T03:30:39.886Z,9.30
2022-09-27T03:33:06.897Z,9.30
2022-09-27T03:35:42.874Z,9.30
2022-09-27T03:38:10.876Z,9.30
2022-09-27T03:40:40.773Z,9.30
2022-09-27T03:43:08.469Z,9.30
2022-09-27T03:45:35.320Z,9.30
2022-09-27T03:48:06.413Z,9.30
2022-09-27T03:50:34.654Z,9.30
2022-09-27T03:53:01.801Z,9.20
2022-09-27T03:55:28.871Z,9.20
2022-09-27T03:57:55.893Z,9.20
2022-09-27T04:00:23.022Z,9.20
2022-09-27T04:02:50.096Z,9.20
2022-09-27T04:05:24.199Z,9.20
2022-09-27T04:07:56.317Z,9.20
2022-09-27T04:10:23.628Z,9.20
2022-09-27T04:12:51.555Z,9.20
2022-09-27T04:15:21.217Z,9.30
2022-09-27T04:17:49.089Z,9.30
2022-09-27T04:20:36.786Z,9.40
2022-09-27T04:23:09.667Z,9.40
2022-09-27T04:25:40.240Z,9.40
2022-09-27T04:28:37.379Z,9.40
2022-09-27T04:31:04.405Z,9.50
2022-09-27T04:34:06.590Z,9.50
2022-09-27T04:36:35.942Z,9.50
2022-09-27T04:39:07.841Z,9.50
2022-09-27T04:41:37.581Z,9.40
2022-09-27T04:44:06.566Z,9.40
2022-09-27T04:46:34.891Z,9.40
2022-09-27T04:49:02.420Z,9.40
2022-09-27T04:51:31.432Z,9.40
2022-09-27T04:53:58.643Z,9.40
2022-09-27T04:56:38.900Z,9.40
2022-09-27T04:59:09.947Z,9.30
2022-09-27T05:01:40.256Z,9.30
2022-09-27T05:04:39.466Z,9.30
2022-09-27T05:07:09.590Z,9.20
2022-09-27T05:09:42.620Z,9.20
2022-09-27T05:12:10.086Z,9.20
2022-09-27T05:14:37.423Z,9.20
2022-09-27T05:17:20.580Z,9.20
2022-09-27T05:20:06.463Z,9.20
2022-09-27T05:22:59.783Z,9.20
2022-09-27T05:25:27.035Z,9.20
2022-09-27T05:27:54.220Z,9.20
2022-09-27T05:30:21.338Z,9.20
2022-09-27T05:32:52.478Z,9.10
2022-09-27T05:35:50.054Z,9.10
2022-09-27T05:38:19.123Z,9.10
2022-09-27T05:40:51.051Z,9.10
2022-09-27T05:43:21.617Z,9.10
2022-09-27T05:45:53.289Z,9.10
2022-09-27T05:48:22.358Z,9.10
2022-09-27T05:51:06.466Z,9.10
2022-09-27T05:53:36.736Z,9.00
2022-09-27T05:56:07.213Z,9.00
2022-09-27T05:59:03.019Z,9.00
2022-09-27T06:01:49.123Z,9.00
2022-09-27T06:04:52.265Z,9.00
2022-09-27T06:07:46.246Z,9.00
2022-09-27T06:10:18.762Z,9.10
2022-09-27T06:12:46.619Z,9.10
2022-09-27T06:15:32.808Z,9.20
2022-09-27T06:18:11.167Z,9.20
2022-09-27T06:20:40.313Z,9.30
2022-09-27T06:23:10.136Z,9.30
2022-09-27T06:25:38.020Z,9.40
2022-09-27T06:28:22.471Z,9.40
2022-09-27T06:30:53.047Z,9.40
2022-09-27T06:33:32.613Z,9.40
2022-09-27T06:36:03.795Z,9.40
2022-09-27T06:38:31.100Z,9.50
2022-09-27T06:41:21.395Z,9.60
2022-09-27T06:44:06.362Z,9.70
2022-09-27T06:46:49.302Z,9.80
2022-09-27T06:49:33.697Z,9.80
2022-09-27T06:52:00.989Z,9.80
2022-09-27T06:54:28.893Z,9.80
2022-09-27T06:56:59.024Z,9.80
2022-09-27T06:59:47.913Z,9.90
2022-09-27T07:02:33.445Z,10.00
2022-09-27T07:05:38.996Z,10.00
2022-09-27T07:08:19.671Z,10.00
2022-09-27T07:10:46.887Z,10.20
2022-09-27T07:13:14.132Z,10.30
2022-09-27T07:15:41.773Z,10.50
2022-09-27T07:18:13.168Z,10.40
2022-09-27T07:20:40.542Z,10.40
2022-09-27T07:23:07.997Z,10.30
2022-09-27T07:25:39.457Z,10.20
2022-09-27T07:28:10.274Z,10.20
2022-09-27T07:30:37.720Z,10.10
2022-09-27T07:33:05.896Z,10.10
2022-09-27T07:35:33.003Z,10.10
2022-09-27T07:38:03.942Z,10.10
2022-09-27T07:40:31.785Z,10.10
2022-09-27T07:42:59.324Z,10.10
2022-09-27T07:45:26.723Z,10.10
2022-09-27T07:48:13.115Z,10.20
2022-09-27T07:50:58.714Z,10.30
2022-09-27T07:53:54.890Z,10.40
2022-09-27T07:56:57.305Z,10.50
2022-09-27T07:59:24.990Z,10.50
2022-09-27T08:01:53.266Z,10.60
2022-09-27T08:04:20.704Z,10.60
2022-09-27T08:06:48.023Z,10.60
2022-09-27T08:09:15.143Z,10.60
2022-09-27T08:11:45.741Z,10.60
2022-09-27T08:14:19.577Z,10.60
2022-09-27T08:16:52.130Z,10.70
2022-09-27T08:19:28.244Z,10.80
2022-09-27T08:21:58.746Z,10.70
2022-09-27T08:24:34.436Z,10.70
2022-09-27T08:27:19.748Z,10.70
2022-09-27T08:29:53.111Z,10.80
2022-09-27T08:32:23.328Z,10.70
2022-09-27T08:34:51.762Z,10.70
2022-09-27T08:37:21.016Z,10.70
2022-09-27T08:39:49.295Z,10.70
2022-09-27T08:42:41.444Z,10.70
2022-09-27T08:45:14.082Z,10.60
2022-09-27T08:47:44.061Z,10.50
2022-09-27T08:50:23.424Z,10.50
2022-09-27T08:53:00.464Z,10.50
2022-09-27T08:55:32.644Z,10.50
2022-09-27T08:58:00.005Z,10.50
2022-09-27T09:00:28.810Z,10.60
2022-09-27T09:03:21.140Z,10.70
2022-09-27T09:06:10.202Z,10.80
2022-09-27T09:08:47.432Z,10.90
2022-09-27T09:11:39.051Z,11.00
2022-09-27T09:14:24.799Z,11.00
2022-09-27T09:17:19.435Z,11.10
2022-09-27T09:20:17.277Z,11.10
2022-09-27T09:23:15.050Z,11.10
2022-09-27T09:26:05.628Z,11.20
2022-09-27T09:28:38.979Z,11.20
2022-09-27T09:31:24.027Z,11.20
2022-09-27T09:33:54.746Z,11.20
2022-09-27T09:36:38.294Z,11.00
2022-09-27T09:39:11.375Z,10.90
2022-09-27T09:41:43.498Z,10.80
2022-09-27T09:44:49.334Z,10.70
2022-09-27T09:47:26.161Z,10.60
2022-09-27T09:49:56.014Z,10.60
2022-09-27T09:52:27.572Z,10.50
2022-09-27T09:55:02.505Z,10.50
2022-09-27T09:57:44.097Z,10.50
2022-09-27T10:00:19.040Z,10.40
2022-09-27T10:02:55.173Z,10.50
2022-09-27T10:05:23.314Z,10.60
2022-09-27T10:07:59.647Z,10.70
2022-09-27T10:10:27.296Z,10.70
2022-09-27T10:13:12.100Z,10.80
2022-09-27T10:15:39.635Z,10.80
2022-09-27T10:18:12.184Z,10.70
2022-09-27T10:20:42.374Z,10.60
2022-09-27T10:23:19.337Z,10.60
2022-09-27T10:26:09.116Z,10.50
2022-09-27T10:28:50.970Z,10.50
2022-09-27T10:31:36.214Z,10.50
2022-09-27T10:34:24.335Z,10.50
2022-09-27T10:37:22.327Z,10.50
2022-09-27T10:40:33.787Z,10.50
2022-09-27T10:43:28.768Z,10.60
2022-09-27T10:46:12.881Z,10.60
2022-09-27T10:48:45.646Z,10.70
2022-09-27T10:51:23.783Z,10.70
2022-09-27T10:53:51.990Z,10.70
2022-09-27T10:56:30.602Z,10.80
2022-09-27T10:59:02.413Z,10.90
2022-09-27T11:01:45.487Z,10.90
2022-09-27T11:04:34.362Z,10.90
2022-09-27T11:07:23.409Z,10.90
2022-09-27T11:10:06.168Z,10.90
2022-09-27T11:12:37.261Z,10.80
2022-09-27T11:15:10.579Z,10.80
2022-09-27T11:17:52.192Z,10.90
2022-09-27T11:20:38.721Z,10.90
2022-09-27T11:23:21.652Z,11.00
2022-09-27T11:25:57.033Z,11.00
2022-09-27T11:28:23.997Z,10.90
2022-09-27T11:31:06.418Z,10.90
2022-09-27T11:33:52.560Z,10.90
2022-09-27T11:36:20.564Z,11.00
2022-09-27T11:39:01.770Z,11.10
2022-09-27T11:41:41.388Z,11.20
2022-09-27T11:44:15.311Z,11.30
2022-09-27T11:46:45.706Z,11.40
2022-09-27T11:49:32.845Z,11.40
2022-09-27T11:52:13.819Z,11.40
2022-09-27T11:54:40.931Z,11.40
2022-09-27T11:58:28.732Z,11.40
2022-09-27T12:01:28.757Z,11.50
2022-09-27T12:04:22.481Z,11.40
2022-09-27T12:07:02.246Z,11.30
2022-09-27T12:09:35.545Z,11.30
2022-09-27T12:12:11.392Z,11.20
2022-09-27T12:14:52.477Z,11.20
2022-09-27T12:17:42.349Z,11.20
2022-09-27T12:20:35.031Z,11.20
2022-09-27T12:26:51.170Z,11.10
2022-09-27T12:29:26.372Z,11.20
2022-09-27T12:32:31.304Z,11.30
2022-09-27T12:35:24.354Z,11.40
2022-09-27T12:38:16.394Z,11.40
2022-09-27T12:41:07.198Z,11.40
2022-09-27T12:47:56.702Z,11.30
2022-09-27T12:50:43.295Z,11.20
2022-09-27T12:53:45.339Z,11.30
2022-09-27T12:56:35.788Z,11.30
2022-09-27T12:59:12.213Z,11.40
2022-09-27T13:02:08.016Z,11.30
2022-09-27T13:05:10.902Z,11.50
2022-09-27T13:08:09.583Z,11.40
2022-09-27T13:11:19.403Z,11.30
2022-09-27T13:14:01.731Z,11.10
2022-09-27T13:16:29.461Z,10.90
2022-09-27T13:19:04.433Z,10.80
2022-09-27T13:21:49.667Z,10.70
2022-09-27T13:24:41.997Z,10.70
2022-09-27T13:27:35.882Z,10.70
2022-09-27T13:30:13.420Z,10.60
2022-09-27T13:33:09.164Z,10.60
2022-09-27T13:36:19.137Z,10.50
2022-09-27T13:39:14.439Z,10.40
2022-09-27T13:42:31.826Z,10.40
2022-09-27T13:45:13.518Z,10.40
2022-09-27T13:47:49.724Z,10.40
2022-09-27T13:50:29.301Z,10.40
2022-09-27T13:53:18.551Z,10.40
2022-09-27T13:55:53.311Z,10.50
2022-09-27T13:58:54.957Z,10.50
2022-09-27T14:01:46.878Z,10.50
2022-09-27T14:04:54.001Z,10.40
2022-09-27T14:07:36.799Z,10.50
2022-09-27T14:10:23.150Z,10.50
2022-09-27T14:12:57.129Z,10.70
2022-09-27T14:15:29.523Z,10.70
2022-09-27T14:17:59.495Z,10.80
2022-09-27T14:20:39.036Z,10.90
2022-09-27T14:23:53.667Z,11.00
2022-09-27T14:26:51.180Z,11.20
2022-09-27T14:29:22.714Z,11.20
2022-09-27T14:32:20.073Z,11.20
2022-09-27T14:35:35.754Z,11.20
2022-09-27T14:38:36.967Z,11.30
2022-09-27T14:41:10.631Z,11.30
2022-09-27T14:43:55.268Z,11.30
2022-09-27T14:46:31.807Z,11.30
2022-09-27T14:48:59.825Z,11.40
2022-09-27T14:51:32.097Z,11.40
2022-09-27T14:54:06.405Z,11.50
2022-09-27T14:56:37.861Z,11.60
2022-09-27T14:59:17.820Z,11.60
2022-09-27T15:01:53.530Z,11.70
2022-09-27T15:04:25.827Z,11.70
2022-09-27T15:06:53.674Z,11.60
2022-09-27T15:09:21.672Z,11.60
2022-09-27T15:12:02.429Z,11.50
2022-09-27T15:14:33.405Z,11.50
2022-09-27T15:20:54.329Z,11.30
2022-09-27T15:23:35.968Z,11.30
2022-09-27T15:26:21.350Z,11.30
2022-09-27T15:28:52.591Z,11.30
2022-09-27T15:31:30.325Z,11.20
2022-09-27T15:33:58.383Z,11.30
2022-09-27T15:36:51.353Z,11.20
2022-09-27T15:39:27.657Z,11.20
2022-09-27T15:42:06.914Z,11.10
2022-09-27T15:44:43.193Z,11.20
2022-09-27T15:47:56.389Z,11.20
2022-09-27T15:50:26.888Z,11.10
2022-09-27T15:53:05.964Z,11.10
2022-09-27T15:55:45.331Z,11.10
2022-09-27T15:58:22.241Z,11.10
2022-09-27T16:01:19.155Z,11.10
2022-09-27T16:04:19.365Z,11.00
2022-09-27T16:06:45.587Z,11.00
2022-09-27T16:09:29.834Z,11.00
2022-09-27T16:12:00.013Z,11.00
2022-09-27T16:14:28.959Z,11.00
2022-09-27T16:17:03.372Z,11.00
2022-09-27T16:19:30.621Z,11.00
2022-09-27T16:22:32.291Z,11.00
2022-09-27T16:25:19.039Z,11.00
2022-09-27T16:27:53.764Z,10.90
2022-09-27T16:30:33.614Z,11.00
2022-09-27T16:33:10.995Z,10.90
2022-09-27T16:35:43.417Z,10.90
2022-09-27T16:38:10.938Z,10.90
2022-09-27T16:40:38.316Z,10.90
2022-09-27T16:43:07.781Z,10.90
2022-09-27T16:45:45.383Z,10.90
2022-09-27T16:48:12.650Z,10.90
2022-09-27T16:52:37.089Z,10.90
2022-09-27T16:53:53.124Z,10.90
2022-09-27T16:56:20.834Z,10.90
2022-09-27T16:58:48.017Z,11.00
2022-09-27T17:01:17.023Z,10.90
2022-09-27T17:03:55.566Z,10.90
2022-09-27T17:07:15.192Z,10.90
2022-09-27T17:09:42.621Z,10.90
2022-09-27T17:12:11.942Z,10.90
2022-09-27T17:14:39.560Z,10.80
2022-09-27T17:17:07.652Z,10.80
2022-09-27T17:19:34.981Z,10.70
2022-09-27T17:22:06.500Z,10.70
2022-09-27T17:24:35.005Z,10.70
2022-09-27T17:27:05.179Z,10.70
2022-09-27T17:29:34.515Z,10.70
2022-09-27T17:32:04.182Z,10.70
2022-09-27T17:34:32.235Z,10.60
2022-09-27T17:37:01.275Z,10.60
2022-09-27T17:39:28.630Z,10.50
2022-09-27T17:41:58.815Z,10.50
2022-09-27T17:44:29.338Z,10.50
2022-09-27T17:47:22.390Z,10.40
2022-09-27T17:51:18.616Z,10.40
2022-09-27T17:53:52.857Z,10.30
2022-09-27T17:56:20.258Z,10.30
2022-09-27T17:58:54.409Z,10.30
2022-09-27T18:01:25.223Z,10.30
2022-09-27T18:03:59.459Z,10.30
2022-09-27T18:06:27.809Z,10.30
2022-09-27T18:08:58.551Z,10.30
2022-09-27T18:11:30.493Z,10.30
2022-09-27T18:14:02.249Z,10.20
2022-09-27T18:16:32.655Z,10.20
2022-09-27T18:19:00.754Z,10.20
2022-09-27T18:21:34.857Z,10.30
2022-09-27T18:24:11.028Z,10.30
2022-09-27T18:26:39.469Z,10.30
2022-09-27T18:29:09.913Z,10.20
2022-09-27T18:31:37.686Z,10.20
2022-09-27T18:34:07.420Z,10.20
2022-09-27T18:36:35.193Z,10.20
2022-09-27T18:39:50.675Z,10.20
2022-09-27T18:42:20.960Z,10.20
2022-09-27T18:44:59.313Z,10.20
2022-09-27T18:47:29.683Z,10.20
2022-09-27T18:57:08.572Z,10.20
2022-09-27T19:01:53.363Z,10.20
2022-09-27T19:04:45.842Z,10.20
2022-09-27T19:07:55.247Z,10.20
2022-09-27T19:11:50.124Z,10.20
2022-09-27T19:18:33.151Z,10.10
2022-09-27T19:21:37.955Z,10.10
2022-09-27T19:29:09.562Z,10.10
2022-09-27T19:35:21.867Z,10.00
2022-09-27T19:38:35.675Z,9.90
2022-09-27T19:45:23.528Z,9.90
2022-09-27T20:00:22.099Z,9.90
2022-09-27T20:03:08.964Z,9.80
2022-09-27T20:06:52.912Z,9.90
2022-09-27T20:09:15.585Z,9.90
2022-09-27T20:16:00.083Z,9.80
2022-09-27T20:16:02.683Z,9.90
2022-09-27T20:18:27.824Z,9.80
2022-09-27T20:24:24.115Z,9.80
2022-09-27T20:30:39.239Z,9.80
2022-09-27T20:37:25.894Z,9.80
2022-09-27T20:39:54.887Z,9.90
2022-09-27T20:51:31.807Z,9.90
2022-09-27T20:54:22.711Z,9.90
2022-09-27T21:04:25.505Z,10.00
2022-09-27T21:06:52.804Z,9.90
2022-09-27T21:09:20.514Z,10.00
2022-09-27T21:12:30.396Z,10.00
2022-09-27T21:14:59.395Z,10.00
2022-09-27T21:17:26.513Z,10.00
2022-09-27T21:19:53.744Z,10.00
2022-09-27T21:22:27.037Z,10.00
2022-09-27T21:25:03.454Z,10.00
2022-09-27T21:27:31.013Z,10.10
2022-09-27T21:30:00.294Z,10.10
2022-09-27T21:32:27.968Z,10.10
2022-09-27T21:34:55.737Z,10.10
2022-09-27T21:37:23.345Z,10.20
2022-09-27T21:39:50.625Z,10.10
2022-09-27T21:42:17.881Z,10.20
2022-09-27T21:44:45.212Z,10.10
2022-09-27T21:47:14.045Z,10.10
2022-09-27T21:49:41.250Z,10.10
2022-09-27T21:52:08.346Z,10.00
2022-09-27T21:54:35.732Z,10.00
2022-09-27T21:57:03.001Z,9.90
2022-09-27T21:59:30.034Z,9.90
2022-09-27T22:01:57.569Z,9.90
2022-09-27T22:04:24.905Z,9.90
2022-09-27T22:06:54.416Z,9.90
2022-09-27T22:09:22.328Z,9.90
2022-09-27T22:11:50.685Z,9.90
2022-09-27T22:14:23.460Z,9.90
2022-09-27T22:16:50.704Z,9.80
2022-09-27T22:19:18.758Z,9.80
2022-09-27T22:21:55.434Z,9.70
2022-09-27T22:24:22.908Z,9.70
2022-09-27T22:26:51.984Z,9.60
2022-09-27T22:29:22.337Z,9.50
2022-09-27T22:31:51.474Z,9.40
2022-09-27T22:34:29.051Z,9.30
2022-09-27T22:37:00.593Z,9.20
2022-09-27T22:39:28.069Z,9.10
2022-09-27T22:42:02.630Z,9.10
2022-09-27T22:44:31.636Z,9.10
2022-09-27T22:46:59.163Z,9.00
2022-09-27T22:49:28.678Z,9.00
2022-09-27T22:51:55.749Z,9.00
2022-09-27T22:54:22.894Z,9.00
2022-09-27T22:56:57.393Z,9.00
2022-09-27T22:59:27.206Z,9.00
2022-09-27T23:01:55.197Z,9.10
2022-09-27T23:04:22.510Z,9.10
2022-09-27T23:06:50.866Z,9.20
2022-09-27T23:09:18.238Z,9.30
2022-09-27T23:11:45.669Z,9.30
2022-09-27T23:14:15.921Z,9.30
2022-09-27T23:16:43.352Z,9.30
2022-09-27T23:19:12.900Z,9.20
2022-09-27T23:21:40.403Z,9.20
2022-09-27T23:24:07.695Z,9.10
2022-09-27T23:26:37.269Z,9.20
2022-09-27T23:29:04.585Z,9.10
2022-09-27T23:31:32.582Z,9.10
2022-09-27T23:34:03.987Z,9.10
2022-09-27T23:36:31.202Z,9.10
2022-09-27T23:39:00.584Z,9.10
2022-09-27T23:41:27.911Z,9.10
2022-09-27T23:43:55.128Z,9.20
2022-09-27T23:46:22.408Z,9.20
2022-09-27T23:48:53.619Z,9.20
2022-09-27T23:51:21.126Z,9.20
2022-09-27T23:53:48.611Z,9.20
2022-09-27T23:56:19.762Z,9.20
2022-09-27T23:58:48.307Z,9.20
